Terminal Aerodrome Forecast
Issued by NWS

Home | Current Version | Previous Version | Text Only | Print | Product List | Glossary On
Versions: 1 2 3 4 5 6 7 8 9 10 11 12 13 14 15 16 17 18 19 20 21 22 23 24 25 26 27 28 29 30 31 32 33 34 35
619
FTUS46 KEKA 262335
TAFCEC
TAF
KCEC 262335Z 2700/2724 19009KT P6SM SCT006
      TEMPO 2705/2707 5SM BR BKN006
     FM270700 VRB04KT 1SM BR OVC004
     FM271200 35004KT 1/2SM FG OVC002
     FM271800 31010KT P6SM SCT007=

USA.gov is the U.S. government's official web portal to all federal, state and local government web resources and services.